Time;durP1;ratioP1;P1;durP2;ratioP2;P2;SDS_P1;SDS_P2;PMS_P1;PMS_P2;Temp;Humidity;BMP_temperature;BMP_pressure;BME280_temperature;BME280_humidity;BME280_pressure;Samples;Min_cycle;Max_cycle;Signal;HPM_P1;HPM_P2
2021/09/17 02:45:38;;;;;;;12.10;8.55;;;18.60;99.90;;;;;;5584513;24;20071;-79
2021/09/17 02:48:05;;;;;;;11.55;8.40;;;18.50;99.90;;;;;;4751673;30;20040;-80
2021/09/17 02:50:30;;;;;;;10.80;7.90;;;18.50;99.90;;;;;;4767715;30;20069;-80
2021/09/17 02:52:56;;;;;;;12.02;8.38;;;18.50;99.90;;;;;;4752045;30;20040;-79
2021/09/17 02:55:22;;;;;;;7.95;7.03;;;18.50;99.90;;;;;;4752168;30;20025;-80
2021/09/17 02:57:48;;;;;;;11.80;6.93;;;18.40;99.90;;;;;;4767056;30;20035;-79
2021/09/17 03:00:14;;;;;;;9.93;8.10;;;18.40;99.90;;;;;;4768119;30;20036;-79
2021/09/17 03:02:40;;;;;;;10.32;7.18;;;18.50;99.90;;;;;;4767836;30;20028;-79
2021/09/17 03:05:06;;;;;;;9.88;6.97;;;18.40;99.90;;;;;;4766618;30;20043;-79
2021/09/17 03:07:32;;;;;;;8.98;6.45;;;18.40;99.90;;;;;;4766432;30;20043;-80
2021/09/17 03:09:58;;;;;;;8.85;6.53;;;18.40;99.90;;;;;;4766563;30;20044;-80
2021/09/17 03:12:24;;;;;;;8.65;6.03;;;18.50;99.90;;;;;;4766665;30;20028;-80
2021/09/17 03:14:49;;;;;;;11.23;6.32;;;18.60;99.90;;;;;;4766526;30;20028;-80
2021/09/17 03:17:15;;;;;;;8.30;5.97;;;18.50;99.90;;;;;;4757166;30;20028;-78
2021/09/17 03:19:41;;;;;;;8.95;6.47;;;18.50;99.90;;;;;;4750830;30;20056;-79
2021/09/17 03:22:07;;;;;;;13.32;7.20;;;18.50;99.90;;;;;;4751998;30;20066;-81
2021/09/17 03:24:33;;;;;;;9.30;6.55;;;18.50;99.90;;;;;;4767321;30;20032;-78
2021/09/17 03:26:58;;;;;;;10.32;6.78;;;18.40;99.90;;;;;;4750841;30;20036;-78
2021/09/17 03:29:24;;;;;;;10.00;6.72;;;18.40;99.90;;;;;;4736194;30;20078;-79
2021/09/17 03:31:50;;;;;;;10.02;7.22;;;18.40;99.90;;;;;;4751017;30;20032;-79
2021/09/17 03:34:16;;;;;;;10.57;7.72;;;18.40;99.90;;;;;;4751006;30;20231;-79
2021/09/17 03:36:42;;;;;;;12.57;7.15;;;18.30;99.90;;;;;;4750588;30;20049;-77
2021/09/17 03:39:10;;;;;;;10.27;7.87;;;18.30;99.90;;;;;;4766333;30;20066;-80
2021/09/17 03:41:36;;;;;;;12.65;8.43;;;18.20;99.90;;;;;;4750659;30;20208;-80
2021/09/17 03:44:02;;;;;;;10.80;7.85;;;18.20;99.90;;;;;;4750513;30;20043;-79
2021/09/17 03:46:27;;;;;;;8.63;7.40;;;18.10;99.90;;;;;;4750046;30;20143;-79
2021/09/17 03:48:53;;;;;;;10.32;7.50;;;18.10;99.90;;;;;;4750240;30;20032;-78
2021/09/17 03:51:19;;;;;;;10.88;7.82;;;18.10;99.90;;;;;;4750391;30;20427;-79
2021/09/17 03:53:45;;;;;;;10.18;8.00;;;18.10;99.90;;;;;;4766411;30;20035;-80
2021/09/17 03:56:11;;;;;;;8.68;7.32;;;18.10;99.90;;;;;;4750902;30;20332;-80
2021/09/17 03:58:36;;;;;;;11.13;7.70;;;18.10;99.90;;;;;;4750383;30;20036;-80
2021/09/17 04:01:02;;;;;;;16.55;7.88;;;18.10;99.90;;;;;;4750446;30;20044;-80
2021/09/17 04:03:28;;;;;;;9.40;7.50;;;18.10;99.90;;;;;;4750539;30;20085;-80
2021/09/17 04:05:54;;;;;;;14.55;8.20;;;18.10;99.90;;;;;;4750868;30;20062;-80
2021/09/17 04:08:20;;;;;;;8.63;7.50;;;18.10;99.90;;;;;;4751140;30;20032;-80
2021/09/17 04:10:45;;;;;;;9.93;7.70;;;18.10;99.90;;;;;;4750547;30;20044;-80
2021/09/17 04:13:11;;;;;;;16.83;8.43;;;18.10;99.90;;;;;;4750014;30;20227;-80
2021/09/17 04:15:37;;;;;;;10.18;8.60;;;18.10;99.90;;;;;;4750626;30;20136;-80
2021/09/17 04:18:03;;;;;;;12.20;8.77;;;18.00;99.90;;;;;;4750361;30;20032;-80
2021/09/17 04:20:29;;;;;;;12.77;8.43;;;18.00;99.90;;;;;;4735848;30;20063;-80
2021/09/17 04:22:54;;;;;;;10.18;7.85;;;18.00;99.90;;;;;;4750403;30;20040;-80
2021/09/17 04:25:21;;;;;;;11.23;8.57;;;18.00;99.90;;;;;;4750292;30;20105;-80
2021/09/17 04:27:47;;;;;;;12.35;8.32;;;18.10;99.90;;;;;;4736062;30;20099;-80
2021/09/17 04:30:15;;;;;;;13.27;8.93;;;18.10;99.90;;;;;;4749365;30;20240;-80
2021/09/17 04:32:43;;;;;;;13.13;7.88;;;18.10;99.90;;;;;;4732710;30;20056;-80
2021/09/17 04:35:09;;;;;;;10.68;8.02;;;18.00;99.90;;;;;;4747044;30;20060;-80
2021/09/17 04:37:56;;;;;;;12.80;9.35;;;18.00;99.90;;;;;;4718123;30;20104;-80
2021/09/17 04:40:24;;;;;;;14.27;9.07;;;18.00;99.90;;;;;;4748346;30;20055;-80
2021/09/17 04:42:50;;;;;;;14.02;8.27;;;18.00;99.90;;;;;;4747181;30;20060;-79
2021/09/17 04:45:16;;;;;;;10.65;9.00;;;18.00;99.90;;;;;;4732177;30;20040;-79
2021/09/17 04:47:42;;;;;;;15.82;8.63;;;18.00;99.90;;;;;;4747123;30;20055;-78
2021/09/17 04:50:10;;;;;;;10.07;8.73;;;18.00;99.90;;;;;;4765700;30;20036;-80
2021/09/17 04:52:36;;;;;;;9.52;7.97;;;18.00;99.90;;;;;;4749794;30;20089;-79
2021/09/17 04:55:03;;;;;;;9.10;8.10;;;18.10;99.90;;;;;;4750028;30;20316;-79
2021/09/17 04:57:29;;;;;;;14.35;8.27;;;18.00;99.90;;;;;;4750251;30;20048;-79
2021/09/17 04:59:56;;;;;;;15.32;9.93;;;18.10;99.90;;;;;;4749783;30;20085;-79
2021/09/17 05:02:21;;;;;;;12.95;9.07;;;18.10;99.90;;;;;;4749922;30;20035;-80
2021/09/17 05:04:47;;;;;;;12.82;9.93;;;18.10;99.90;;;;;;4749939;30;20035;-81
2021/09/17 05:07:13;;;;;;;15.18;10.02;;;18.00;99.90;;;;;;4765874;30;20040;-80
2021/09/17 05:09:39;;;;;;;18.10;10.55;;;18.00;99.90;;;;;;4735875;30;20239;-80
2021/09/17 05:12:06;;;;;;;11.35;9.00;;;18.00;99.90;;;;;;4750455;30;20097;-81
2021/09/17 05:14:32;;;;;;;14.38;10.23;;;18.10;99.90;;;;;;4750227;30;20391;-81
2021/09/17 05:16:58;;;;;;;18.80;9.00;;;18.10;99.90;;;;;;4764929;30;20355;-81
2021/09/17 05:19:25;;;;;;;14.35;9.80;;;18.10;99.90;;;;;;4766066;30;20112;-78
2021/09/17 05:21:54;;;;;;;17.95;9.90;;;18.10;99.90;;;;;;4749696;30;20047;-79
2021/09/17 05:24:22;;;;;;;13.50;9.63;;;18.20;99.90;;;;;;4748962;30;20151;-79
2021/09/17 05:26:48;;;;;;;;;;;18.20;99.90;;;;;;4780105;30;20034;-80
2021/09/17 05:29:13;;;;;;;13.83;8.47;;;18.20;99.90;;;;;;4746022;30;19986;-78
2021/09/17 05:31:39;;;;;;;12.98;9.50;;;18.30;99.90;;;;;;4755680;30;20028;-80
2021/09/17 05:34:05;;;;;;;12.55;8.88;;;18.30;99.90;;;;;;4734874;30;20024;-79
2021/09/17 05:36:31;;;;;;;16.30;8.93;;;18.30;99.90;;;;;;4746706;30;20024;-80
2021/09/17 05:38:56;;;;;;;16.63;8.68;;;18.30;99.90;;;;;;4750057;30;20039;-80
2021/09/17 05:41:22;;;;;;;11.82;8.45;;;18.30;99.90;;;;;;4749695;30;20215;-80
2021/09/17 05:43:49;;;;;;;10.15;8.02;;;18.40;99.90;;;;;;4749598;30;20072;-80
2021/09/17 05:46:15;;;;;;;12.27;8.73;;;18.50;99.90;;;;;;4734636;30;20339;-80
2021/09/17 05:48:41;;;;;;;13.68;8.07;;;18.50;99.90;;;;;;4749052;30;20044;-80
2021/09/17 05:51:07;;;;;;;13.40;7.63;;;18.60;99.90;;;;;;4749067;30;20040;-80
2021/09/17 05:53:33;;;;;;;10.80;6.90;;;18.70;99.80;;;;;;4749752;30;20040;-80
2021/09/17 05:55:58;;;;;;;13.82;7.28;;;18.80;99.70;;;;;;4746296;30;20220;-81
2021/09/17 05:58:30;;;;;;;10.57;7.57;;;18.80;99.20;;;;;;4734035;30;20028;-81
2021/09/17 06:00:56;;;;;;;9.48;7.05;;;19.00;98.80;;;;;;4764670;30;20050;-81
2021/09/17 06:03:21;;;;;;;20.60;8.02;;;19.00;97.80;;;;;;4748563;30;20028;-80
2021/09/17 06:05:47;;;;;;;9.75;6.97;;;19.00;97.60;;;;;;4748720;30;20058;-81
2021/09/17 06:08:14;;;;;;;12.75;7.85;;;18.90;96.80;;;;;;4734421;30;20055;-81
2021/09/17 06:10:40;;;;;;;10.52;7.38;;;18.90;97.10;;;;;;4734367;30;20387;-81
2021/09/17 06:13:05;;;;;;;9.55;7.72;;;18.90;96.70;;;;;;4734262;30;20020;-81
2021/09/17 06:15:31;;;;;;;10.77;8.52;;;18.90;97.20;;;;;;4748621;30;20032;-81
2021/09/17 06:17:57;;;;;;;11.75;8.10;;;19.00;97.10;;;;;;4748347;30;20043;-82
2021/09/17 06:20:23;;;;;;;14.88;8.32;;;19.00;96.70;;;;;;4733960;30;20227;-81
2021/09/17 06:22:53;;;;;;;12.95;7.90;;;19.00;96.30;;;;;;4734226;30;20035;-81
2021/09/17 06:25:20;;;;;;;13.30;7.57;;;18.90;96.50;;;;;;4748821;30;20049;-81
2021/09/17 06:27:47;;;;;;;10.70;8.05;;;18.90;96.60;;;;;;4733815;30;20033;-81
2021/09/17 06:30:13;;;;;;;13.52;8.00;;;18.90;96.10;;;;;;4734900;30;20036;-81
2021/09/17 06:32:39;;;;;;;12.77;7.53;;;18.90;96.50;;;;;;4734058;30;20036;-81
2021/09/17 06:35:05;;;;;;;9.40;7.45;;;19.00;96.30;;;;;;4734428;30;20102;-82
2021/09/17 06:37:31;;;;;;;11.50;8.40;;;19.00;96.40;;;;;;4734463;30;20031;-81
2021/09/17 06:39:57;;;;;;;14.88;7.70;;;19.10;96.40;;;;;;4733988;30;20319;-82
2021/09/17 06:42:22;;;;;;;14.07;8.13;;;19.20;96.50;;;;;;4732334;30;20402;-80
2021/09/17 06:44:48;;;;;;;9.55;7.45;;;19.30;96.10;;;;;;4733910;30;20027;-82
2021/09/17 06:47:14;;;;;;;10.50;7.32;;;19.40;95.90;;;;;;4733719;30;20052;-83
2021/09/17 06:49:40;;;;;;;11.80;6.80;;;19.50;95.60;;;;;;4748354;30;20036;-80
2021/09/17 06:52:06;;;;;;;11.70;7.43;;;19.50;94.60;;;;;;4733830;30;20219;-83
2021/09/17 06:54:32;;;;;;;8.00;6.30;;;19.50;93.50;;;;;;4750451;30;20039;-80
2021/09/17 06:56:57;;;;;;;9.20;5.90;;;19.40;93.20;;;;;;4737295;30;20290;-85
2021/09/17 06:59:23;;;;;;;11.48;6.03;;;19.50;93.10;;;;;;4736792;30;20127;-85
2021/09/17 07:01:49;;;;;;;10.27;5.05;;;19.60;92.90;;;;;;4737295;30;20336;-84
2021/09/17 07:04:15;;;;;;;8.17;4.67;;;19.70;92.00;;;;;;4737192;30;20036;-85
2021/09/17 07:06:41;;;;;;;6.60;4.20;;;19.80;91.70;;;;;;4736709;30;20285;-85
2021/09/17 07:09:07;;;;;;;8.75;4.35;;;19.90;91.30;;;;;;4736081;30;20074;-84
2021/09/17 07:11:33;;;;;;;7.07;4.40;;;20.00;90.80;;;;;;4736062;30;20032;-84
2021/09/17 07:13:59;;;;;;;8.48;4.10;;;20.00;88.70;;;;;;4736189;30;20032;-84
2021/09/17 07:16:25;;;;;;;11.90;4.50;;;19.80;90.00;;;;;;4748047;30;20120;-84
2021/09/17 07:18:51;;;;;;;9.75;4.43;;;19.90;90.30;;;;;;4744167;30;20044;-83
2021/09/17 07:21:17;;;;;;;6.15;4.45;;;19.90;90.30;;;;;;4736154;30;20028;-84
2021/09/17 07:23:42;;;;;;;8.57;4.82;;;19.90;89.30;;;;;;4751169;30;20028;-83
2021/09/17 07:26:08;;;;;;;7.57;4.85;;;19.80;89.80;;;;;;4736374;30;20042;-84
2021/09/17 07:28:34;;;;;;;9.60;5.80;;;19.90;90.30;;;;;;4750894;30;20032;-83
2021/09/17 07:31:00;;;;;;;8.10;5.50;;;19.80;90.00;;;;;;4737456;30;20101;-80
2021/09/17 07:33:26;;;;;;;11.57;6.23;;;19.70;89.50;;;;;;4765846;30;20032;-81
2021/09/17 07:35:52;;;;;;;10.05;7.18;;;19.70;90.40;;;;;;4749812;30;20097;-79
2021/09/17 07:38:18;;;;;;;15.43;7.93;;;19.70;91.00;;;;;;4734792;30;20071;-78
2021/09/17 07:40:43;;;;;;;16.08;7.78;;;19.70;90.80;;;;;;4734953;30;20040;-79
2021/09/17 07:43:09;;;;;;;20.80;9.45;;;19.70;91.30;;;;;;4765423;30;20032;-79
2021/09/17 07:45:35;;;;;;;16.10;9.15;;;19.80;91.80;;;;;;4765383;30;20377;-80
2021/09/17 07:48:03;;;;;;;15.15;8.43;;;19.80;91.70;;;;;;4734966;30;20123;-80
2021/09/17 07:50:29;;;;;;;10.95;8.93;;;19.90;91.40;;;;;;4749643;30;20044;-80
2021/09/17 07:52:56;;;;;;;11.32;7.85;;;20.10;91.30;;;;;;4766131;30;20020;-80
2021/09/17 07:55:22;;;;;;;9.65;8.07;;;20.30;90.60;;;;;;4765869;30;20099;-80
2021/09/17 07:57:48;;;;;;;8.83;7.37;;;20.50;89.00;;;;;;4764327;30;20036;-79
2021/09/17 08:00:16;;;;;;;10.35;8.30;;;20.40;90.00;;;;;;4749734;30;20039;-79
2021/09/17 08:02:43;;;;;;;11.02;7.47;;;20.40;90.20;;;;;;4749755;30;20027;-80
2021/09/17 08:05:09;;;;;;;11.30;7.80;;;20.40;89.50;;;;;;4750031;30;20046;-81
2021/09/17 08:07:36;;;;;;;6.13;5.40;;;20.40;90.30;;;;;;4735271;30;20032;-81
2021/09/17 08:10:03;;;;;;;9.87;6.60;;;20.30;87.10;;;;;;4749375;30;20044;-82
2021/09/17 08:12:29;;;;;;;7.07;5.78;;;20.20;87.80;;;;;;4750045;30;20323;-82
2021/09/17 08:14:55;;;;;;;12.38;7.28;;;20.20;88.50;;;;;;4735635;30;20032;-82
2021/09/17 08:17:21;;;;;;;10.40;6.85;;;20.10;88.60;;;;;;4746541;30;20206;-81
2021/09/17 08:19:47;;;;;;;10.27;6.47;;;20.10;88.30;;;;;;4716704;30;20040;-81
2021/09/17 08:22:12;;;;;;;7.55;6.50;;;20.10;88.50;;;;;;4717119;30;20032;-82
2021/09/17 08:24:38;;;;;;;9.35;6.90;;;20.30;88.30;;;;;;4717683;30;20083;-81
2021/09/17 08:27:04;;;;;;;8.55;5.78;;;20.30;86.70;;;;;;4756703;30;20028;-81
2021/09/17 08:29:30;;;;;;;15.05;6.05;;;20.40;86.00;;;;;;4748852;30;20200;-82
2021/09/17 08:31:57;;;;;;;9.65;6.35;;;20.40;85.90;;;;;;4750884;30;20024;-81
2021/09/17 08:34:25;;;;;;;6.25;5.05;;;20.50;86.50;;;;;;4763528;30;20058;-81
2021/09/17 08:36:52;;;;;;;11.13;5.05;;;20.60;84.80;;;;;;4764063;30;20035;-81
2021/09/17 08:39:18;;;;;;;7.40;5.70;;;20.50;84.70;;;;;;4763743;30;20332;-82
2021/09/17 08:41:45;;;;;;;6.03;4.32;;;20.40;84.70;;;;;;4763849;30;20032;-81
2021/09/17 08:44:12;;;;;;;7.03;4.65;;;20.60;85.40;;;;;;4746243;30;20040;-81
2021/09/17 08:46:42;;;;;;;7.40;4.17;;;21.00;84.70;;;;;;4735449;30;20048;-81
2021/09/17 08:49:09;;;;;;;8.57;4.30;;;21.40;83.00;;;;;;4736860;30;20046;-82
2021/09/17 08:51:35;;;;;;;8.07;3.55;;;21.60;79.30;;;;;;4764454;30;20267;-81
2021/09/17 08:54:04;;;;;;;4.20;3.80;;;22.00;78.80;;;;;;4734186;30;20032;-83
2021/09/17 08:56:31;;;;;;;4.57;3.15;;;22.20;78.70;;;;;;4764120;30;20045;-82
2021/09/17 08:58:57;;;;;;;5.45;3.25;;;22.40;74.60;;;;;;4749085;30;20039;-82
2021/09/17 09:01:28;;;;;;;4.10;3.58;;;22.50;74.50;;;;;;4745315;30;20107;-82
2021/09/17 09:04:00;;;;;;;4.85;3.65;;;22.60;72.80;;;;;;4730492;30;20096;-82
2021/09/17 09:06:27;;;;;;;7.18;2.97;;;22.80;73.80;;;;;;4731128;30;20324;-82
2021/09/17 09:08:53;;;;;;;;;;;23.10;72.60;;;;;;4746204;30;20032;-82
2021/09/17 09:11:21;;;;;;;4.33;3.23;;;23.40;73.20;;;;;;4748388;30;19972;-82
2021/09/17 09:14:11;;;;;;;7.85;3.47;;;23.60;72.80;;;;;;4748512;30;20039;-82
2021/09/17 09:16:42;;;;;;;8.68;3.85;;;23.50;70.30;;;;;;4733044;30;20106;-82
2021/09/17 09:19:21;;;;;;;5.90;3.42;;;23.50;70.90;;;;;;4748328;30;20048;-82
2021/09/17 09:21:49;;;;;;;3.85;3.13;;;23.10;69.10;;;;;;4733739;30;20118;-82
2021/09/17 09:24:23;;;;;;;30.95;3.90;;;22.70;70.30;;;;;;4764111;30;20020;-82
2021/09/17 09:27:11;;;;;;;3.72;3.15;;;22.50;69.50;;;;;;4759513;30;20099;-82
2021/09/17 09:29:39;;;;;;;6.97;3.50;;;22.50;71.10;;;;;;4747833;30;20115;-82
2021/09/17 09:32:06;;;;;;;10.00;3.78;;;22.40;71.40;;;;;;4747614;30;20024;-82
2021/09/17 09:34:54;;;;;;;7.22;4.13;;;22.50;71.80;;;;;;4733071;30;20081;-83
2021/09/17 09:37:26;;;;;;;7.00;4.40;;;22.50;70.40;;;;;;4747758;30;20032;-82
2021/09/17 09:40:01;;;;;;;9.18;4.28;;;22.30;71.90;;;;;;4747919;30;20024;-81
2021/09/17 09:42:41;;;;;;;9.30;4.53;;;22.50;72.90;;;;;;4734207;30;20332;-83
2021/09/17 09:45:16;;;;;;;6.60;4.32;;;22.60;72.40;;;;;;4734023;30;20039;-83
2021/09/17 09:47:49;;;;;;;6.95;4.40;;;22.80;71.40;;;;;;4733857;30;20064;-84
2021/09/17 09:50:27;;;;;;;5.13;4.43;;;22.90;73.00;;;;;;4748854;30;20185;-82
2021/09/17 09:52:57;;;;;;;5.22;4.35;;;23.10;70.70;;;;;;4747929;30;20024;-81
2021/09/17 09:55:23;;;;;;;4.43;3.78;;;23.10;69.20;;;;;;4747702;30;20060;-81
2021/09/17 09:57:49;;;;;;;6.55;3.90;;;23.20;71.00;;;;;;4733404;30;20035;-81
2021/09/17 10:00:16;;;;;;;7.22;4.18;;;23.50;71.30;;;;;;4733148;30;20050;-81
2021/09/17 10:02:44;;;;;;;4.35;3.95;;;23.60;68.70;;;;;;4733896;30;20062;-82
2021/09/17 10:05:13;;;;;;;6.00;3.92;;;23.50;67.20;;;;;;4733519;30;20064;-82
2021/09/17 10:07:39;;;;;;;7.53;4.97;;;23.40;67.10;;;;;;4747894;30;20038;-82
2021/09/17 10:10:08;;;;;;;8.55;3.90;;;23.20;67.80;;;;;;4733168;30;20343;-82
2021/09/17 10:12:34;;;;;;;6.70;4.70;;;23.00;69.00;;;;;;4747782;30;20040;-82
2021/09/17 10:15:01;;;;;;;6.77;4.93;;;22.90;69.70;;;;;;4733248;30;20104;-81
2021/09/17 10:17:30;;;;;;;5.35;4.45;;;22.80;71.50;;;;;;4740719;30;20352;-82
2021/09/17 10:19:57;;;;;;;7.60;4.55;;;22.70;69.00;;;;;;4715842;30;20044;-82
2021/09/17 10:22:36;;;;;;;5.20;4.20;;;22.60;71.10;;;;;;4729894;30;20038;-82
2021/09/17 10:25:22;;;;;;;8.40;4.18;;;22.60;69.50;;;;;;4715288;30;20044;-82
2021/09/17 10:28:02;;;;;;;5.40;3.80;;;22.40;70.10;;;;;;4730416;30;20198;-81
2021/09/17 10:30:38;;;;;;;4.95;4.20;;;22.40;70.20;;;;;;4733552;30;20112;-82
2021/09/17 10:33:04;;;;;;;4.88;4.35;;;22.20;71.20;;;;;;4719370;30;20209;-81
2021/09/17 10:35:44;;;;;;;4.17;3.47;;;22.10;71.70;;;;;;4719399;30;20355;-82
2021/09/17 10:38:24;;;;;;;9.23;3.17;;;22.00;71.70;;;;;;4733577;30;20036;-82
2021/09/17 10:40:54;;;;;;;7.90;3.50;;;21.90;71.20;;;;;;4718914;30;20041;-82
2021/09/17 10:43:32;;;;;;;10.18;3.78;;;21.90;70.20;;;;;;4747949;30;20028;-82
2021/09/17 10:46:09;;;;;;;4.80;3.72;;;22.00;70.80;;;;;;4749046;30;20363;-81
2021/09/17 10:48:41;;;;;;;6.72;4.28;;;22.10;70.10;;;;;;4733186;30;20052;-81
2021/09/17 10:51:30;;;;;;;4.82;3.90;;;22.20;69.10;;;;;;4732992;30;20107;-81
2021/09/17 10:54:02;;;;;;;8.15;4.03;;;22.40;70.00;;;;;;4733314;30;20080;-81
2021/09/17 10:56:49;;;;;;;5.38;4.35;;;22.40;69.20;;;;;;4733181;30;20111;-81
2021/09/17 10:59:18;;;;;;;;;;;22.40;68.90;;;;;;4719385;30;20336;-82
2021/09/17 11:02:03;;;;;;;7.35;3.08;;;22.50;70.70;;;;;;4718547;30;19968;-80
2021/09/17 11:04:31;;;;;;;5.05;2.78;;;22.50;68.00;;;;;;4718444;30;20039;-81
2021/09/17 11:07:18;;;;;;;3.05;2.25;;;22.50;68.80;;;;;;4718497;30;20059;-82
2021/09/17 11:09:50;;;;;;;5.18;2.30;;;22.70;68.60;;;;;;4732856;30;20047;-81
2021/09/17 11:12:21;;;;;;;5.95;2.15;;;22.80;70.20;;;;;;4733001;30;20036;-81
2021/09/17 11:15:06;;;;;;;7.90;1.60;;;23.10;68.00;;;;;;4733063;30;20056;-82
2021/09/17 11:17:35;;;;;;;1.77;1.65;;;23.20;66.90;;;;;;4743654;30;20041;-81
2021/09/17 11:20:01;;;;;;;2.03;1.25;;;23.40;67.40;;;;;;4747382;30;20040;-81
2021/09/17 11:22:26;;;;;;;2.65;1.55;;;23.60;67.30;;;;;;4747408;30;20035;-81
2021/09/17 11:25:04;;;;;;;4.70;1.70;;;23.70;67.20;;;;;;4747354;30;20029;-82
2021/09/17 11:27:30;;;;;;;3.10;1.13;;;23.90;64.20;;;;;;4747718;30;20036;-82
2021/09/17 11:30:06;;;;;;;1.73;0.75;;;23.90;63.20;;;;;;4748041;30;20035;-81
2021/09/17 11:32:31;;;;;;;6.22;1.10;;;23.70;62.00;;;;;;4732476;30;20036;-82
2021/09/17 11:35:08;;;;;;;4.93;0.90;;;23.60;62.70;;;;;;4747088;30;20270;-81
2021/09/17 11:37:34;;;;;;;1.40;0.88;;;23.60;61.90;;;;;;4732549;30;20085;-82
2021/09/17 11:40:08;;;;;;;2.80;1.02;;;23.50;61.30;;;;;;4746690;30;20040;-81
2021/09/17 11:42:34;;;;;;;1.25;0.70;;;23.40;61.40;;;;;;4732342;30;20047;-82
2021/09/17 11:45:11;;;;;;;6.75;1.98;;;23.40;61.70;;;;;;4732565;30;20092;-81
2021/09/17 11:47:38;;;;;;;4.72;0.90;;;23.40;61.20;;;;;;4749543;30;20060;-81
2021/09/17 11:50:13;;;;;;;1.77;0.80;;;23.20;60.90;;;;;;4764359;30;20036;-81
2021/09/17 11:52:40;;;;;;;0.88;0.70;;;23.10;61.90;;;;;;4749992;30;20060;-81
2021/09/17 11:55:08;;;;;;;5.38;0.98;;;23.00;62.20;;;;;;4749177;30;20056;-82
2021/09/17 11:57:36;;;;;;;3.97;1.33;;;23.10;63.40;;;;;;4749338;30;20035;-81
2021/09/17 12:00:09;;;;;;;4.15;0.95;;;23.20;63.40;;;;;;4749667;30;20028;-82
2021/09/17 12:02:35;;;;;;;3.35;1.20;;;23.30;62.00;;;;;;4748933;30;20115;-81
2021/09/17 12:05:03;;;;;;;2.28;0.82;;;23.40;62.80;;;;;;4765397;30;20039;-81
2021/09/17 12:07:30;;;;;;;6.00;1.00;;;23.50;62.50;;;;;;4749277;30;20039;-81
2021/09/17 12:09:56;;;;;;;;;;;23.50;62.90;;;;;;4748939;30;20045;-81
2021/09/17 12:12:33;;;;;;;2.17;1.07;;;23.40;62.80;;;;;;4746348;30;20015;-81
2021/09/17 12:14:59;;;;;;;3.45;1.00;;;23.40;62.80;;;;;;4737554;30;20089;-80
2021/09/17 12:17:26;;;;;;;2.25;1.10;;;23.50;63.50;;;;;;4749191;30;20024;-81
2021/09/17 12:19:57;;;;;;;2.97;1.33;;;23.50;62.40;;;;;;4748764;30;20068;-80
2021/09/17 12:22:45;;;;;;;1.20;1.10;;;23.60;61.90;;;;;;4749127;30;20047;-81
2021/09/17 12:25:17;;;;;;;4.38;1.30;;;23.80;62.10;;;;;;4748929;30;20036;-81
2021/09/17 12:27:48;;;;;;;1.30;0.85;;;23.80;61.30;;;;;;4734097;30;20032;-81
2021/09/17 12:30:19;;;;;;;2.85;0.80;;;23.70;62.10;;;;;;4743085;30;20154;-81
2021/09/17 12:33:07;;;;;;;2.33;1.30;;;23.70;62.80;;;;;;4754507;30;20037;-81
2021/09/17 12:35:32;;;;;;;1.45;1.23;;;23.60;61.90;;;;;;4760568;30;20033;-81
2021/09/17 12:37:58;;;;;;;2.08;1.33;;;23.50;62.90;;;;;;4760911;30;20399;-81
2021/09/17 12:40:30;;;;;;;4.38;1.52;;;23.50;63.00;;;;;;4745972;30;20096;-81
2021/09/17 12:42:59;;;;;;;3.75;1.52;;;23.50;62.10;;;;;;4746946;30;20100;-81
2021/09/17 12:45:25;;;;;;;4.20;1.48;;;23.60;63.20;;;;;;4745499;30;20051;-81
2021/09/17 12:47:53;;;;;;;9.73;1.48;;;23.70;62.40;;;;;;4747204;30;20390;-81
2021/09/17 12:50:26;;;;;;;8.30;1.63;;;23.70;62.90;;;;;;4745645;30;20040;-81
2021/09/17 12:52:52;;;;;;;3.65;1.58;;;23.70;62.00;;;;;;4745067;30;20056;-81
2021/09/17 12:55:25;;;;;;;2.28;1.50;;;23.70;62.60;;;;;;4734509;30;20070;-81
2021/09/17 12:58:27;;;;;;;4.30;1.30;;;23.70;63.50;;;;;;4764265;30;20039;-81
2021/09/17 13:00:53;;;;;;;4.35;1.83;;;23.60;61.80;;;;;;4680866;30;20253;-81
2021/09/17 13:03:20;;;;;;;4.93;1.73;;;23.50;63.00;;;;;;4694903;30;20065;-81
2021/09/17 13:05:54;;;;;;;2.50;1.50;;;23.50;62.60;;;;;;4680831;30;20343;-81
2021/09/17 13:08:21;;;;;;;2.05;1.50;;;23.30;62.60;;;;;;4702186;30;20041;-81
2021/09/17 13:10:47;;;;;;;2.88;1.67;;;23.40;62.70;;;;;;4680997;30;20037;-81
2021/09/17 13:13:14;;;;;;;3.03;1.30;;;23.50;62.50;;;;;;4681377;30;20038;-81
2021/09/17 13:15:41;;;;;;;1.55;1.25;;;23.50;61.80;;;;;;4681201;30;20148;-81
2021/09/17 13:18:08;;;;;;;3.53;1.60;;;23.50;62.10;;;;;;4694644;30;20038;-81
2021/09/17 13:20:35;;;;;;;6.75;1.50;;;23.50;62.00;;;;;;4680797;30;20038;-81
2021/09/17 13:23:02;;;;;;;2.10;1.55;;;23.60;62.90;;;;;;4682376;30;20041;-81
2021/09/17 13:25:29;;;;;;;3.10;1.70;;;23.60;62.30;;;;;;4681813;30;20380;-81
2021/09/17 13:27:56;;;;;;;2.70;1.23;;;23.40;61.70;;;;;;4695498;30;20049;-81
2021/09/17 13:30:28;;;;;;;3.80;1.40;;;23.30;62.40;;;;;;4680800;30;20053;-81
2021/09/17 13:32:55;;;;;;;2.97;1.45;;;23.00;61.40;;;;;;4695365;30;20041;-81
2021/09/17 13:35:23;;;;;;;;;;;22.80;62.90;;;;;;4707959;30;20064;-81
2021/09/17 13:37:50;;;;;;;1.95;1.30;;;22.70;63.10;;;;;;4726757;30;19910;-81
2021/09/17 13:40:17;;;;;;;11.02;1.60;;;22.80;62.50;;;;;;4748341;30;20063;-81
2021/09/17 13:42:47;;;;;;;3.55;1.40;;;23.00;62.20;;;;;;4748283;30;20047;-81
2021/09/17 13:45:14;;;;;;;4.60;1.45;;;23.20;61.00;;;;;;4719020;30;20035;-81
2021/09/17 13:47:41;;;;;;;1.92;1.33;;;23.30;60.90;;;;;;4732486;30;20053;-81
2021/09/17 13:50:09;;;;;;;4.18;1.45;;;23.40;61.00;;;;;;4743944;30;20040;-81
2021/09/17 13:52:35;;;;;;;3.90;1.20;;;23.40;59.60;;;;;;4745067;30;20044;-81
2021/09/17 13:55:00;;;;;;;3.05;1.30;;;23.60;59.20;;;;;;4745198;30;20028;-81
2021/09/17 13:57:26;;;;;;;4.18;1.70;;;23.70;59.50;;;;;;4730367;30;20040;-81
2021/09/17 13:59:52;;;;;;;4.00;1.40;;;23.90;58.90;;;;;;4745089;30;20074;-82
2021/09/17 14:02:19;;;;;;;2.05;1.42;;;23.90;58.20;;;;;;4745444;30;20040;-81
2021/09/17 14:04:45;;;;;;;4.97;2.15;;;23.90;58.40;;;;;;4751157;30;20041;-82
2021/09/17 14:07:11;;;;;;;1.60;1.10;;;23.80;58.80;;;;;;4758828;30;20036;-81
2021/09/17 14:09:37;;;;;;;4.68;1.60;;;23.70;57.50;;;;;;4736431;30;20036;-80
2021/09/17 14:12:03;;;;;;;3.13;1.38;;;23.50;58.20;;;;;;4752554;30;20136;-81
2021/09/17 14:14:30;;;;;;;4.43;2.00;;;23.40;58.80;;;;;;4768609;30;20371;-80
2021/09/17 14:16:56;;;;;;;3.00;1.50;;;23.20;59.40;;;;;;4768798;30;20028;-81
2021/09/17 14:19:22;;;;;;;2.75;1.75;;;23.10;60.30;;;;;;4752983;30;20109;-81
2021/09/17 14:21:48;;;;;;;2.75;1.58;;;23.00;60.90;;;;;;4749106;30;20120;-81
2021/09/17 14:24:14;;;;;;;5.80;1.55;;;23.00;61.90;;;;;;4753067;30;20229;-81
2021/09/17 14:26:41;;;;;;;2.35;1.70;;;22.80;61.50;;;;;;4738071;30;20036;-81
2021/09/17 14:29:07;;;;;;;5.38;1.70;;;22.60;62.00;;;;;;4750052;30;20067;-81
2021/09/17 14:31:33;;;;;;;1.95;1.52;;;22.40;63.00;;;;;;4750016;30;20028;-81
2021/09/17 14:34:00;;;;;;;4.90;1.88;;;22.20;63.60;;;;;;4742061;30;20035;-80
2021/09/17 14:36:26;;;;;;;1.85;1.50;;;22.10;63.80;;;;;;4738233;30;20050;-80
2021/09/17 14:38:52;;;;;;;3.65;2.10;;;22.10;63.80;;;;;;4738508;30;20093;-80
2021/09/17 14:41:18;;;;;;;3.00;2.10;;;22.10;64.00;;;;;;4752857;30;20059;-80
2021/09/17 14:43:44;;;;;;;4.57;1.70;;;22.10;63.50;;;;;;4737848;30;20099;-80
2021/09/17 14:46:10;;;;;;;3.30;1.60;;;22.20;63.60;;;;;;4749485;30;20076;-80
2021/09/17 14:48:36;;;;;;;2.73;1.63;;;22.20;64.30;;;;;;4750397;30;20044;-80
2021/09/17 14:51:03;;;;;;;2.63;1.42;;;22.10;64.10;;;;;;4752839;30;20040;-80
2021/09/17 14:53:29;;;;;;;6.15;1.90;;;22.30;64.90;;;;;;4753051;30;20066;-82
2021/09/17 14:55:55;;;;;;;3.90;1.47;;;22.50;64.70;;;;;;4738502;30;20035;-80
2021/09/17 14:58:21;;;;;;;3.83;1.80;;;22.70;64.20;;;;;;4737972;30;20024;-81
2021/09/17 15:00:48;;;;;;;3.78;1.98;;;22.60;62.50;;;;;;4752790;30;20039;-80
2021/09/17 15:03:14;;;;;;;2.83;1.60;;;22.40;63.10;;;;;;4735600;30;20259;-80
2021/09/17 15:05:40;;;;;;;3.28;1.75;;;22.30;63.30;;;;;;4765232;30;20085;-81
2021/09/17 15:08:07;;;;;;;2.83;1.60;;;22.30;62.60;;;;;;4752466;30;20032;-81
2021/09/17 15:10:34;;;;;;;2.10;1.60;;;22.20;61.60;;;;;;4752436;30;20038;-81
2021/09/17 15:13:00;;;;;;;2.38;1.40;;;22.10;62.40;;;;;;4753083;30;20036;-80
2021/09/17 15:15:26;;;;;;;3.47;1.48;;;22.00;62.10;;;;;;4735589;30;20047;-81
2021/09/17 15:17:53;;;;;;;3.88;1.30;;;21.90;62.40;;;;;;4747127;30;20033;-81
2021/09/17 15:20:20;;;;;;;14.27;1.57;;;21.80;62.70;;;;;;4718084;30;20043;-81
2021/09/17 15:22:46;;;;;;;3.30;1.60;;;21.80;62.70;;;;;;4757739;30;20044;-81
2021/09/17 15:25:13;;;;;;;3.22;1.30;;;21.70;62.90;;;;;;4749668;30;20093;-81
2021/09/17 15:27:38;;;;;;;2.58;1.33;;;21.70;62.90;;;;;;4735513;30;20036;-81
2021/09/17 15:30:06;;;;;;;1.40;1.23;;;21.80;63.90;;;;;;4748794;30;20040;-82
2021/09/17 15:32:32;;;;;;;3.60;1.33;;;21.80;63.40;;;;;;4755248;30;20033;-82
2021/09/17 15:34:58;;;;;;;2.53;1.33;;;21.80;62.90;;;;;;4737463;30;20025;-82